Terminal Aerodrome Forecast
Issued by NWS

Home | Current Version | Previous Version | Text Only | Print | Product List | Glossary On
Versions: 1 2 3 4 5 6 7 8 9 10 11 12 13 14 15 16 17 18 19 20 21 22 23 24 25 26 27 28 29 30 31 32 33 34 35 36 37 38 39 40 41 42 43 44 45 46 47 48 49 50
000
FTUS43 KGRR 181740
TAFBTL
TAF
KBTL 181740Z 1818/1918 27012G21KT P6SM -SHRA VCTS BKN050CB
     FM182300 20014KT P6SM SCT250
     FM190900 22010KT P6SM VCSH BKN100
     FM191300 22011KT P6SM BKN035
     FM191600 22012G21KT P6SM BKN060=

USA.gov is the U.S. government's official web portal to all federal, state and local government web resources and services.